Time;durP1;ratioP1;P1;durP2;ratioP2;P2;SDS_P1;SDS_P2;PMS_P1;PMS_P2;Temp;Humidity;BMP_temperature;BMP_pressure;BME280_temperature;BME280_humidity;BME280_pressure;Samples;Min_cycle;Max_cycle;Signal;HPM_P1;HPM_P2
2024/02/24 00:00:36;;;;;;;;;1.00;1.00;;;;;12.52;100.00;98894.69;2097189;28;46848;-54
2024/02/24 00:01:36;;;;;;;;;1.00;1.00;;;;;12.62;100.00;98895.84;2098433;28;47179;-52
2024/02/24 00:02:37;;;;;;;;;2.00;2.00;;;;;12.61;100.00;98894.16;2097304;28;46354;-50
2024/02/24 00:03:37;;;;;;;;;2.00;2.00;;;;;12.56;100.00;98897.06;2097895;28;46541;-48
2024/02/24 00:04:37;;;;;;;;;2.00;1.33;;;;;12.52;100.00;98905.31;2098069;28;46825;-50
2024/02/24 00:05:38;;;;;;;;;1.00;1.00;;;;;12.51;100.00;98895.63;2098007;28;46815;-49
2024/02/24 00:06:38;;;;;;;;;1.00;1.00;;;;;12.78;100.00;98895.78;2099354;28;46802;-51
2024/02/24 00:07:38;;;;;;;;;2.00;1.00;;;;;12.83;100.00;98902.56;2097944;28;46256;-52
2024/02/24 00:08:39;;;;;;;;;2.00;2.00;;;;;12.72;100.00;98898.84;2098899;28;46402;-50
2024/02/24 00:09:39;;;;;;;;;1.00;1.00;;;;;12.87;100.00;98898.78;2097763;27;46899;-50
2024/02/24 00:10:39;;;;;;;;;2.00;2.00;;;;;12.90;100.00;98901.25;2098347;28;46212;-51
2024/02/24 00:11:40;;;;;;;;;1.00;1.00;;;;;12.91;100.00;98902.97;2099130;28;46838;-52
2024/02/24 00:12:40;;;;;;;;;1.00;1.00;;;;;12.92;100.00;98902.00;2099436;28;46430;-52
2024/02/24 00:13:40;;;;;;;;;0.00;0.00;;;;;12.91;100.00;98896.78;2099313;28;46253;-52
2024/02/24 00:14:41;;;;;;;;;1.00;1.00;;;;;12.85;100.00;98898.00;2100339;28;46878;-51
2024/02/24 00:15:41;;;;;;;;;1.00;1.00;;;;;12.74;100.00;98905.78;2099848;28;46596;-49
2024/02/24 00:16:41;;;;;;;;;0.00;0.00;;;;;12.92;100.00;98907.31;2092014;28;47881;-50
2024/02/24 00:17:42;;;;;;;;;2.00;1.00;;;;;12.93;100.00;98898.38;2091648;28;46314;-50
2024/02/24 00:18:43;;;;;;;;;1.00;1.00;;;;;12.95;100.00;98909.78;2098506;28;45321;-50
2024/02/24 00:19:43;;;;;;;;;2.00;2.00;;;;;12.93;100.00;98906.38;2099401;28;46608;-52
2024/02/24 00:20:43;;;;;;;;;1.00;1.00;;;;;12.92;100.00;98903.81;2099449;28;46301;-52
2024/02/24 00:21:44;;;;;;;;;0.00;0.00;;;;;12.88;100.00;98903.16;2098862;28;46341;-51
2024/02/24 00:22:44;;;;;;;;;1.00;1.00;;;;;12.86;100.00;98914.84;2099967;28;47082;-51
2024/02/24 00:23:44;;;;;;;;;0.00;0.00;;;;;12.88;100.00;98911.13;2086125;28;46375;-52
2024/02/24 00:24:44;;;;;;;;;2.00;0.00;;;;;12.88;100.00;98908.47;2086670;28;45044;-51
2024/02/24 00:25:45;;;;;;;;;0.00;0.00;;;;;12.87;100.00;98908.56;2100059;28;45593;-50
2024/02/24 00:26:45;;;;;;;;;0.00;0.00;;;;;12.86;100.00;98907.72;2099959;28;46843;-51
2024/02/24 00:27:46;;;;;;;;;2.00;2.00;;;;;12.84;100.00;98917.59;2100480;28;46503;-49
2024/02/24 00:28:46;;;;;;;;;1.00;1.00;;;;;12.86;100.00;98917.50;2099709;28;46277;-52
2024/02/24 00:29:46;;;;;;;;;0.00;0.00;;;;;12.82;100.00;98906.16;2109392;27;46652;-51
2024/02/24 00:30:47;;;;;;;;;1.00;1.00;;;;;12.84;100.00;98914.09;2108768;27;46392;-52
2024/02/24 00:31:47;;;;;;;;;1.00;1.00;;;;;12.85;100.00;98908.66;2107530;27;46244;-53
2024/02/24 00:32:47;;;;;;;;;2.00;1.00;;;;;12.60;100.00;98913.72;2113256;27;46504;-53
2024/02/24 00:33:48;;;;;;;;;1.33;1.33;;;;;12.61;100.00;98921.63;2112870;27;46835;-53
2024/02/24 00:34:48;;;;;;;;;0.00;0.00;;;;;12.65;100.00;98923.13;2110834;27;46975;-53
2024/02/24 00:35:48;;;;;;;;;0.00;0.00;;;;;12.65;100.00;98920.47;2113552;27;46294;-50
2024/02/24 00:36:49;;;;;;;;;1.00;1.00;;;;;12.63;100.00;98917.06;2112835;27;47138;-50
2024/02/24 00:37:49;;;;;;;;;1.67;1.00;;;;;12.58;100.00;98915.63;2112569;27;46893;-50
2024/02/24 00:38:49;;;;;;;;;2.00;1.00;;;;;12.59;100.00;98914.66;2112663;27;46527;-51
2024/02/24 00:39:51;;;;;;;;;1.00;1.00;;;;;12.65;100.00;98920.47;2112900;27;46174;-53
2024/02/24 00:40:51;;;;;;;;;1.00;1.00;;;;;12.61;100.00;98918.09;2113049;27;46642;-51
2024/02/24 00:41:52;;;;;;;;;1.00;1.00;;;;;12.63;100.00;98918.84;2112685;27;46845;-50
2024/02/24 00:42:52;;;;;;;;;1.00;1.00;;;;;12.61;100.00;98926.94;2113356;27;46246;-49
2024/02/24 00:43:52;;;;;;;;;1.00;1.00;;;;;12.56;100.00;98925.47;2112595;27;46466;-49
2024/02/24 00:44:53;;;;;;;;;1.00;1.00;;;;;12.51;100.00;98924.91;2112944;27;46862;-48
2024/02/24 00:45:53;;;;;;;;;0.00;0.00;;;;;12.52;100.00;98926.59;2112155;27;46386;-48
2024/02/24 00:46:53;;;;;;;;;1.00;1.00;;;;;12.48;100.00;98925.06;2113316;27;46346;-51
2024/02/24 00:47:54;;;;;;;;;0.00;0.00;;;;;12.49;100.00;98926.78;2112635;27;46800;-50
2024/02/24 00:48:54;;;;;;;;;0.00;0.00;;;;;12.51;100.00;98928.41;2112961;27;46513;-49
2024/02/24 00:49:54;;;;;;;;;0.00;0.00;;;;;12.55;100.00;98924.63;2113535;27;46112;-50
2024/02/24 00:50:55;;;;;;;;;0.00;0.00;;;;;12.35;100.00;98928.44;2112915;27;46185;-51
2024/02/24 00:51:55;;;;;;;;;0.00;0.00;;;;;12.46;100.00;98930.50;2110853;27;46182;-51
2024/02/24 00:52:56;;;;;;;;;1.00;1.00;;;;;12.36;100.00;98922.19;2112044;27;46397;-50
2024/02/24 00:53:56;;;;;;;;;0.67;0.67;;;;;12.30;100.00;98925.16;2112993;27;46479;-50
2024/02/24 00:54:56;;;;;;;;;0.00;0.00;;;;;12.31;100.00;98926.03;2113480;27;46589;-49
2024/02/24 00:55:57;;;;;;;;;0.00;0.00;;;;;12.40;100.00;98930.84;2112562;27;46654;-50
2024/02/24 00:56:57;;;;;;;;;1.00;0.00;;;;;12.46;100.00;98925.16;2112319;27;46657;-49
2024/02/24 00:57:58;;;;;;;;;0.00;0.00;;;;;12.46;100.00;98929.63;2112679;27;46844;-51
2024/02/24 00:58:58;;;;;;;;;8.25;7.25;;;;;12.51;100.00;98931.06;2112979;27;46739;-51
2024/02/24 00:59:59;;;;;;;;;3.67;2.00;;;;;12.49;100.00;98935.63;2113249;27;46557;-49
2024/02/24 01:00:59;;;;;;;;;2.00;2.00;;;;;12.51;100.00;98939.06;2113483;27;46292;-50
2024/02/24 01:01:59;;;;;;;;;1.00;1.00;;;;;12.49;100.00;98934.78;2112892;27;46251;-48
2024/02/24 01:03:00;;;;;;;;;0.67;0.67;;;;;12.51;100.00;98944.38;2112795;27;46422;-48
2024/02/24 01:04:00;;;;;;;;;0.67;0.00;;;;;12.49;100.00;98943.59;2113160;27;45270;-50
2024/02/24 01:05:00;;;;;;;;;0.67;0.67;;;;;12.49;100.00;98943.59;2112702;27;46701;-51
2024/02/24 01:06:01;;;;;;;;;0.00;0.00;;;;;12.48;100.00;98951.69;2113027;27;46848;-51
2024/02/24 01:07:01;;;;;;;;;0.00;0.00;;;;;12.48;100.00;98943.69;2112720;27;46624;-46
2024/02/24 01:08:01;;;;;;;;;1.00;0.33;;;;;12.46;100.00;98948.25;2113492;27;46604;-49
2024/02/24 01:09:02;;;;;;;;;2.00;1.00;;;;;12.45;100.00;98946.50;2110576;27;46317;-52
2024/02/24 01:10:03;;;;;;;;;0.00;0.00;;;;;12.45;100.00;98946.50;2112722;27;46913;-48
2024/02/24 01:11:05;;;;;;;;;1.00;1.00;;;;;12.43;100.00;98956.38;2113035;27;46716;-48
2024/02/24 01:12:05;;;;;;;;;1.00;1.00;;;;;12.39;100.00;98939.75;2112484;27;46951;-50
2024/02/24 01:13:06;;;;;;;;;0.67;0.67;;;;;12.41;100.00;98942.31;2112676;27;46926;-50
2024/02/24 01:14:06;;;;;;;;;0.33;0.33;;;;;12.41;100.00;98934.34;2112736;27;46636;-52
2024/02/24 01:15:07;;;;;;;;;0.00;0.00;;;;;12.40;100.00;98938.81;2112599;27;46370;-54
2024/02/24 01:16:07;;;;;;;;;0.00;0.00;;;;;12.42;100.00;98939.56;2112966;27;46640;-48
2024/02/24 01:17:10;;;;;;;;;0.67;0.67;;;;;12.42;100.00;98936.06;2112345;27;46594;-48
2024/02/24 01:18:10;;;;;;;;;1.00;0.00;;;;;12.40;100.00;98943.28;2112918;27;46706;-51
2024/02/24 01:19:11;;;;;;;;;1.00;1.00;;;;;12.40;100.00;98943.28;2111962;27;46414;-48
2024/02/24 01:20:11;;;;;;;;;0.00;0.00;;;;;12.38;100.00;98943.38;2111484;27;46523;-49
2024/02/24 01:21:11;;;;;;;;;0.67;0.67;;;;;12.38;100.00;98946.03;2093548;28;46774;-52
2024/02/24 01:22:13;;;;;;;;;0.00;0.00;;;;;12.34;100.00;98955.13;2093990;28;46734;-49
2024/02/24 01:23:13;;;;;;;;;1.00;1.00;;;;;12.33;100.00;98951.63;2099684;28;46302;-51
2024/02/24 01:24:14;;;;;;;;;1.00;1.00;;;;;12.31;100.00;98957.94;2099676;28;47602;-52
2024/02/24 01:25:14;;;;;;;;;0.00;0.00;;;;;12.36;100.00;98951.44;2110015;27;46305;-50
2024/02/24 01:26:15;;;;;;;;;0.00;0.00;;;;;12.32;100.00;98963.22;2112855;27;46989;-50
2024/02/24 01:27:15;;;;;;;;;1.00;0.00;;;;;12.30;100.00;98961.56;2099661;28;46524;-52
2024/02/24 01:28:15;;;;;;;;;0.00;0.00;;;;;12.26;100.00;98957.38;2099234;28;46572;-49
2024/02/24 01:29:16;;;;;;;;;1.00;1.00;;;;;12.40;100.00;98957.44;2112408;27;47144;-52
2024/02/24 01:30:17;;;;;;;;;0.00;0.00;;;;;12.30;100.00;98964.22;2112100;27;46576;-48
2024/02/24 01:31:17;;;;;;;;;0.50;0.50;;;;;12.40;100.00;98968.06;2112718;27;46699;-52
2024/02/24 01:32:19;;;;;;;;;0.00;0.00;;;;;12.44;100.00;98972.25;2113282;27;46420;-49
2024/02/24 01:33:19;;;;;;;;;1.00;1.00;;;;;12.45;100.00;98970.47;2113065;27;45079;-51
2024/02/24 01:34:19;;;;;;;;;1.00;1.00;;;;;12.43;100.00;98967.88;2112455;27;45476;-50
2024/02/24 01:35:20;;;;;;;;;1.00;1.00;;;;;12.44;100.00;98969.59;2112445;27;46812;-51
2024/02/24 01:36:20;;;;;;;;;1.33;1.00;;;;;12.32;100.00;98981.81;2111745;27;45738;-52
2024/02/24 01:37:20;;;;;;;;;0.33;0.33;;;;;12.31;100.00;98971.25;2112256;27;46279;-50
2024/02/24 01:38:21;;;;;;;;;1.00;1.00;;;;;12.30;100.00;98978.38;2112264;27;46427;-52
2024/02/24 01:39:21;;;;;;;;;2.00;1.00;;;;;12.29;100.00;98970.47;2112062;27;45995;-51
2024/02/24 01:40:21;;;;;;;;;1.67;1.00;;;;;12.29;100.00;98978.47;2112397;27;46639;-52
2024/02/24 01:41:22;;;;;;;;;2.00;2.00;;;;;12.29;100.00;98976.66;2112451;27;46764;-51
2024/02/24 01:42:22;;;;;;;;;1.00;1.00;;;;;12.29;100.00;98979.31;2110745;27;46183;-49
2024/02/24 01:43:27;;;;;;;;;1.00;1.00;;;;;12.32;100.00;98986.25;2110779;27;46813;-53
2024/02/24 01:44:27;;;;;;;;;2.00;2.00;;;;;12.28;100.00;98976.75;2110431;27;46370;-51
2024/02/24 01:45:27;;;;;;;;;1.67;1.67;;;;;12.17;100.00;98981.81;2112537;27;46327;-52
2024/02/24 01:46:28;;;;;;;;;1.00;1.00;;;;;12.25;100.00;98979.59;2096875;28;46377;-52
2024/02/24 01:47:29;;;;;;;;;2.00;2.00;;;;;12.21;100.00;98981.56;2099077;28;46748;-51
2024/02/24 01:48:33;;;;;;;;;1.00;1.00;;;;;12.22;100.00;98990.41;2113125;27;46352;-51
2024/02/24 01:49:33;;;;;;;;;1.00;1.00;;;;;12.17;100.00;98987.97;2112663;27;46695;-51
2024/02/24 01:50:38;;;;;;;;;1.00;1.00;;;;;12.11;100.00;98990.13;2111934;27;45766;-50
2024/02/24 01:51:38;;;;;;;;;1.00;1.00;;;;;12.13;100.00;98994.41;2112254;27;46474;-53
2024/02/24 01:52:47;;;;;;;;;2.00;2.00;;;;;12.03;100.00;98991.41;2112332;27;46979;-51
2024/02/24 01:53:47;;;;;;;;;1.25;1.25;;;;;12.11;100.00;98992.78;2111603;27;46894;-49
2024/02/24 01:54:48;;;;;;;;;2.00;2.00;;;;;12.15;100.00;98992.53;2112791;27;46625;-49
2024/02/24 01:55:50;;;;;;;;;0.25;0.25;;;;;12.15;100.00;98997.00;2112135;27;47014;-51
2024/02/24 01:56:51;;;;;;;;;1.00;1.00;;;;;12.17;100.00;98989.78;2112946;27;46384;-54
2024/02/24 01:57:53;;;;;;;;;1.00;1.00;;;;;12.12;100.00;98995.38;2111981;27;46264;-53
2024/02/24 01:58:54;;;;;;;;;1.75;1.75;;;;;12.19;100.00;98995.88;2111946;27;46870;-52
2024/02/24 01:59:56;;;;;;;;;1.00;1.00;;;;;12.20;100.00;98997.63;2110780;27;46519;-51
2024/02/24 02:00:56;;;;;;;;;1.00;1.00;;;;;12.00;100.00;98996.03;2111886;27;47181;-52
2024/02/24 02:01:56;;;;;;;;;1.00;1.00;;;;;12.16;100.00;98996.91;2112384;27;46267;-52
2024/02/24 02:02:58;;;;;;;;;3.00;1.00;;;;;12.11;100.00;98998.13;2112360;27;46254;-52
2024/02/24 02:03:58;;;;;;;;;1.00;1.00;;;;;12.06;100.00;98995.69;2112214;27;46301;-53
2024/02/24 02:04:58;;;;;;;;;1.00;1.00;;;;;12.00;100.00;99002.22;2089707;28;46533;-49
2024/02/24 02:05:59;;;;;;;;;1.33;1.33;;;;;12.05;100.00;98999.28;2089861;28;45984;-53
2024/02/24 02:06:59;;;;;;;;;1.00;1.00;;;;;11.95;100.00;99004.28;2111279;27;47199;-51
2024/02/24 02:08:00;;;;;;;;;1.00;1.00;;;;;12.03;100.00;99002.03;2111981;27;46585;-50
2024/02/24 02:09:00;;;;;;;;;1.00;1.00;;;;;12.00;100.00;99001.34;2112456;27;46276;-49
2024/02/24 02:10:01;;;;;;;;;1.00;1.00;;;;;12.03;100.00;99007.34;2112069;27;46320;-52
2024/02/24 02:11:01;;;;;;;;;1.00;1.00;;;;;12.00;100.00;99007.53;2112199;27;46859;-48
2024/02/24 02:12:02;;;;;;;;;0.67;0.67;;;;;11.97;100.00;99006.84;2112099;27;46619;-52
2024/02/24 02:13:02;;;;;;;;;1.00;1.00;;;;;11.95;100.00;99006.94;2111987;27;46485;-49
2024/02/24 02:14:04;;;;;;;;;1.00;1.00;;;;;11.94;100.00;99010.53;2112476;27;46872;-50
2024/02/24 02:15:05;;;;;;;;;1.00;0.25;;;;;11.94;100.00;99005.22;2111738;27;46412;-52
2024/02/24 02:16:06;;;;;;;;;0.00;0.00;;;;;12.01;100.00;99003.94;2111595;27;46473;-48
2024/02/24 02:17:06;;;;;;;;;1.00;1.00;;;;;11.96;100.00;99011.31;2109972;27;46088;-49
2024/02/24 02:18:07;;;;;;;;;0.00;0.00;;;;;11.98;100.00;99012.06;2112197;27;46531;-52
2024/02/24 02:19:07;;;;;;;;;0.00;0.00;;;;;11.95;100.00;99014.06;2112469;27;46644;-48
2024/02/24 02:20:08;;;;;;;;;1.00;1.00;;;;;11.92;100.00;99011.53;2111930;27;46656;-48
2024/02/24 02:21:08;;;;;;;;;1.00;1.00;;;;;12.17;100.00;99006.59;2112134;27;46795;-49
2024/02/24 02:22:14;;;;;;;;;0.33;0.33;;;;;12.16;100.00;99015.53;2112329;27;46742;-52
2024/02/24 02:23:14;;;;;;;;;1.00;1.00;;;;;12.13;100.00;99007.72;2111937;27;46373;-49
2024/02/24 02:24:15;;;;;;;;;1.00;1.00;;;;;12.15;100.00;99007.63;2112765;27;46271;-51
2024/02/24 02:25:16;;;;;;;;;2.00;0.00;;;;;12.12;100.00;99011.31;2111850;27;46561;-48
2024/02/24 02:26:18;;;;;;;;;1.00;1.00;;;;;12.03;100.00;99001.19;2112298;27;46857;-53
2024/02/24 02:27:18;;;;;;;;;0.00;0.00;;;;;12.27;100.00;99006.94;2111367;27;46684;-52
2024/02/24 02:28:18;;;;;;;;;0.00;0.00;;;;;12.10;100.00;98999.91;2085997;28;46617;-52
2024/02/24 02:29:19;;;;;;;;;0.00;0.00;;;;;12.00;100.00;99004.88;2085878;28;46649;-52
2024/02/24 02:30:20;;;;;;;;;1.00;1.00;;;;;12.01;100.00;99008.38;2112475;27;46514;-52
2024/02/24 02:31:20;;;;;;;;;1.00;1.00;;;;;11.91;100.00;99015.16;2112018;27;46280;-53
2024/02/24 02:32:20;;;;;;;;;1.00;1.00;;;;;11.94;100.00;99007.00;2112477;27;46192;-52
2024/02/24 02:33:21;;;;;;;;;1.00;1.00;;;;;12.05;100.00;99001.94;2112383;27;45109;-52
2024/02/24 02:34:21;;;;;;;;;1.00;1.00;;;;;11.84;100.00;99008.47;2109813;27;46447;-51
2024/02/24 02:35:21;;;;;;;;;1.00;1.00;;;;;11.92;100.00;99001.75;2094135;28;45955;-50
2024/02/24 02:36:22;;;;;;;;;0.33;0.33;;;;;11.48;100.00;99012.09;2094351;28;45785;-52
2024/02/24 02:37:22;;;;;;;;;1.00;1.00;;;;;11.89;100.00;99006.41;2107826;27;45544;-52
2024/02/24 02:38:22;;;;;;;;;0.00;0.00;;;;;11.82;100.00;99013.88;2112949;27;46276;-51
2024/02/24 02:39:24;;;;;;;;;0.67;0.67;;;;;11.70;100.00;99006.50;2112143;27;45077;-52
2024/02/24 02:40:24;;;;;;;;;1.00;1.00;;;;;12.06;100.00;99011.63;2112315;27;46413;-52
2024/02/24 02:41:24;;;;;;;;;0.00;0.00;;;;;12.18;100.00;99005.66;2112142;27;46232;-50
2024/02/24 02:42:24;;;;;;;;;2.67;0.33;;;;;12.25;100.00;99003.53;2111741;27;46269;-53
2024/02/24 02:43:25;;;;;;;;;1.00;1.00;;;;;12.20;100.00;99005.59;2112058;27;46582;-51
2024/02/24 02:44:25;;;;;;;;;1.00;1.00;;;;;12.21;100.00;99007.31;2111194;27;46293;-51
2024/02/24 02:45:26;;;;;;;;;0.33;0.33;;;;;12.20;100.00;99014.44;2112482;27;46272;-53
2024/02/24 02:46:26;;;;;;;;;2.00;1.00;;;;;12.16;100.00;99002.22;2112560;27;46718;-50
2024/02/24 02:47:26;;;;;;;;;0.00;0.00;;;;;12.09;100.00;99016.81;2111725;27;46293;-50
2024/02/24 02:48:27;;;;;;;;;2.00;1.33;;;;;12.14;100.00;99006.78;2112546;27;46632;-52
2024/02/24 02:49:29;;;;;;;;;0.00;0.00;;;;;12.08;100.00;99012.44;2112062;27;46491;-52
2024/02/24 02:50:29;;;;;;;;;0.50;0.00;;;;;11.92;100.00;99004.41;2109228;27;46898;-52
2024/02/24 02:51:29;;;;;;;;;0.00;0.00;;;;;11.97;100.00;99009.50;2112546;27;46623;-50
2024/02/24 02:52:30;;;;;;;;;0.00;0.00;;;;;11.97;100.00;99002.38;2112026;27;46544;-52
2024/02/24 02:53:30;;;;;;;;;1.00;1.00;;;;;11.85;100.00;99005.72;2112406;27;46603;-51
2024/02/24 02:54:31;;;;;;;;;2.33;1.00;;;;;12.11;100.00;99001.63;2112107;27;46563;-51
2024/02/24 02:55:31;;;;;;;;;0.00;0.00;;;;;11.93;100.00;99015.91;2112577;27;46604;-51
2024/02/24 02:56:31;;;;;;;;;0.00;0.00;;;;;11.93;100.00;99008.78;2112361;27;46229;-49
2024/02/24 02:57:31;;;;;;;;;1.33;0.67;;;;;11.89;100.00;99007.25;2112067;27;46101;-49
2024/02/24 02:58:32;;;;;;;;;0.00;0.00;;;;;12.19;100.00;99014.47;2098777;28;45145;-50
2024/02/24 02:59:35;;;;;;;;;0.00;0.00;;;;;12.02;100.00;99010.97;2099405;28;46798;-53
2024/02/24 03:00:35;;;;;;;;;0.00;0.00;;;;;11.97;100.00;99009.50;2111548;27;46096;-48
2024/02/24 03:01:36;;;;;;;;;0.00;0.00;;;;;12.19;100.00;99007.38;2111721;27;46608;-50
2024/02/24 03:02:36;;;;;;;;;0.00;0.00;;;;;12.08;100.00;99012.44;2111568;27;46293;-50
2024/02/24 03:03:36;;;;;;;;;0.00;0.00;;;;;11.95;100.00;99011.41;2112297;27;45606;-53
2024/02/24 03:04:37;;;;;;;;;1.67;0.00;;;;;11.90;100.00;99022.25;2111786;27;46254;-50
2024/02/24 03:05:37;;;;;;;;;1.00;1.00;;;;;12.13;100.00;99014.84;2109775;27;46504;-52
2024/02/24 03:06:37;;;;;;;;;0.00;0.00;;;;;11.78;100.00;99015.78;2111975;27;46151;-52
2024/02/24 03:07:37;;;;;;;;;0.00;0.00;;;;;11.95;100.00;99020.22;2098991;28;46971;-52
2024/02/24 03:08:38;;;;;;;;;1.00;0.00;;;;;11.91;100.00;99017.81;2098586;28;46227;-51
2024/02/24 03:09:38;;;;;;;;;2.00;1.00;;;;;12.11;100.00;99022.03;2112268;27;45771;-48
2024/02/24 03:10:38;;;;;;;;;0.67;0.67;;;;;11.99;100.00;99023.56;2098550;28;46275;-51
2024/02/24 03:11:39;;;;;;;;;0.00;0.00;;;;;11.91;100.00;99023.97;2099853;28;46056;-49
2024/02/24 03:12:39;;;;;;;;;1.00;1.00;;;;;11.91;100.00;99026.63;2111706;27;46649;-48
2024/02/24 03:13:40;;;;;;;;;0.00;0.00;;;;;11.92;100.00;99022.19;2111991;27;46382;-49
2024/02/24 03:14:43;;;;;;;;;0.00;0.00;;;;;11.93;100.00;99023.88;2112146;27;46070;-48
2024/02/24 03:15:44;;;;;;;;;2.00;1.00;;;;;11.92;100.00;99027.50;2112391;27;46910;-49
2024/02/24 03:16:44;;;;;;;;;0.00;0.00;;;;;11.91;100.00;99026.63;2111495;27;46914;-49
2024/02/24 03:17:44;;;;;;;;;1.67;0.00;;;;;11.92;100.00;99023.03;2111989;27;46522;-48
2024/02/24 03:18:45;;;;;;;;;0.00;0.00;;;;;11.91;100.00;99025.78;2110945;27;46311;-51
2024/02/24 03:19:45;;;;;;;;;0.00;0.00;;;;;11.87;100.00;99022.44;2111665;27;46317;-48
2024/02/24 03:20:45;;;;;;;;;0.00;0.00;;;;;11.85;100.00;99036.75;2111848;27;46864;-52
2024/02/24 03:21:46;;;;;;;;;0.00;0.00;;;;;11.82;100.00;99028.94;2110213;27;46574;-50
2024/02/24 03:22:46;;;;;;;;;0.33;0.00;;;;;11.94;100.00;99026.50;2112139;27;46646;-52
2024/02/24 03:23:46;;;;;;;;;1.00;1.00;;;;;11.96;100.00;99021.94;2111858;27;46233;-48
2024/02/24 03:24:47;;;;;;;;;0.67;0.67;;;;;11.86;100.00;99030.50;2112168;27;46673;-51
2024/02/24 03:25:47;;;;;;;;;0.00;0.00;;;;;11.72;100.00;99031.19;2111998;27;46243;-49
2024/02/24 03:26:47;;;;;;;;;0.33;0.33;;;;;11.72;100.00;99039.16;2111529;27;46338;-49
2024/02/24 03:27:48;;;;;;;;;0.67;0.67;;;;;11.90;100.00;99035.56;2111358;27;46631;-51
2024/02/24 03:28:48;;;;;;;;;1.33;0.00;;;;;11.90;100.00;99038.22;2112117;27;46251;-52
2024/02/24 03:29:48;;;;;;;;;0.00;0.00;;;;;12.03;100.00;99044.56;2112230;27;46540;-48
2024/02/24 03:30:49;;;;;;;;;1.00;1.00;;;;;12.00;100.00;99046.56;2112172;27;46748;-49
2024/02/24 03:31:49;;;;;;;;;0.00;0.00;;;;;12.01;100.00;99035.84;2110359;27;46346;-49
2024/02/24 03:32:50;;;;;;;;;0.00;0.00;;;;;11.99;100.00;99036.88;2107665;27;45737;-49
2024/02/24 03:33:54;;;;;;;;;0.00;0.00;;;;;11.82;100.00;99039.59;2108016;27;46845;-50
2024/02/24 03:34:54;;;;;;;;;0.00;0.00;;;;;11.95;100.00;99045.97;2107167;27;47008;-51
2024/02/24 03:35:55;;;;;;;;;2.00;0.00;;;;;11.78;100.00;99044.16;2107266;27;46664;-48
2024/02/24 03:36:56;;;;;;;;;0.00;0.00;;;;;11.97;100.00;99039.63;2107182;27;47011;-50
2024/02/24 03:37:56;;;;;;;;;1.33;1.00;;;;;11.57;100.00;99042.66;2107645;27;46872;-52
2024/02/24 03:38:57;;;;;;;;;1.00;1.00;;;;;12.00;100.00;99042.09;2105880;27;46811;-53
2024/02/24 03:39:57;;;;;;;;;0.33;0.33;;;;;11.97;100.00;99039.63;2106893;27;46327;-53
2024/02/24 03:40:58;;;;;;;;;1.67;1.00;;;;;12.14;100.00;99037.81;2108416;27;46253;-51
2024/02/24 03:41:58;;;;;;;;;1.00;1.00;;;;;12.17;100.00;99040.31;2106989;27;46820;-48
2024/02/24 03:42:59;;;;;;;;;0.00;0.00;;;;;12.17;100.00;99037.66;2107442;27;46259;-52
2024/02/24 03:43:59;;;;;;;;;0.00;0.00;;;;;12.15;100.00;99036.88;2106866;27;46258;-49
2024/02/24 03:45:00;;;;;;;;;2.00;1.00;;;;;12.14;100.00;99036.03;2107043;27;46766;-51
2024/02/24 03:46:04;;;;;;;;;1.00;1.00;;;;;12.15;100.00;99040.41;2106704;27;47233;-52
2024/02/24 03:47:05;;;;;;;;;1.25;1.25;;;;;12.12;100.00;99037.91;2103052;27;47247;-50
2024/02/24 03:48:05;;;;;;;;;0.00;0.00;;;;;12.03;100.00;99041.91;2089592;28;46450;-49
2024/02/24 03:49:06;;;;;;;;;1.00;1.00;;;;;12.02;100.00;99037.53;2090340;28;46905;-49
2024/02/24 03:50:07;;;;;;;;;0.67;0.67;;;;;12.07;100.00;99039.97;2090057;28;45931;-49
2024/02/24 03:51:07;;;;;;;;;0.00;0.00;;;;;12.13;100.00;99044.09;2089538;28;46397;-50
2024/02/24 03:52:08;;;;;;;;;1.00;1.00;;;;;11.96;100.00;99032.56;2089921;28;46615;-48
2024/02/24 03:53:08;;;;;;;;;1.00;1.00;;;;;11.89;100.00;99038.28;2092552;28;46330;-50
2024/02/24 03:54:10;;;;;;;;;1.00;1.00;;;;;11.98;100.00;99032.50;2091746;28;46775;-49
2024/02/24 03:55:10;;;;;;;;;1.00;1.00;;;;;12.05;100.00;99040.03;2093861;28;46985;-50
2024/02/24 03:56:11;;;;;;;;;1.00;1.00;;;;;12.05;100.00;99049.81;2093252;28;46649;-49
2024/02/24 03:57:11;;;;;;;;;0.00;0.00;;;;;12.05;100.00;99052.47;2094163;28;46332;-49
2024/02/24 03:58:12;;;;;;;;;2.00;2.00;;;;;12.04;100.00;99045.44;2093358;28;46343;-49
2024/02/24 03:59:12;;;;;;;;;2.00;1.00;;;;;12.00;100.00;99050.06;2085394;28;46542;-51
2024/02/24 04:00:13;;;;;;;;;0.67;0.67;;;;;12.12;100.00;99056.53;2085258;28;46331;-47
2024/02/24 04:01:13;;;;;;;;;1.00;1.00;;;;;12.11;100.00;99053.97;2094056;28;46655;-51
2024/02/24 04:02:13;;;;;;;;;2.00;1.00;;;;;11.89;100.00;99052.44;2094181;28;46740;-49
2024/02/24 04:03:14;;;;;;;;;0.00;0.00;;;;;11.83;100.00;99054.59;2093554;28;47183;-51
2024/02/24 04:04:15;;;;;;;;;0.75;0.75;;;;;11.97;100.00;99057.38;2092938;28;46327;-50
2024/02/24 04:05:15;;;;;;;;;1.33;1.33;;;;;11.94;100.00;99062.81;2093865;28;46790;-49
2024/02/24 04:06:16;;;;;;;;;0.67;0.67;;;;;12.05;100.00;99065.75;2090861;28;46549;-50
2024/02/24 04:07:16;;;;;;;;;0.00;0.00;;;;;12.08;100.00;99069.13;2093878;28;46444;-51
2024/02/24 04:08:16;;;;;;;;;1.00;1.00;;;;;11.96;100.00;99060.97;2094326;28;45188;-48
2024/02/24 04:09:16;;;;;;;;;1.00;1.00;;;;;11.95;100.00;99062.75;2093370;28;46228;-49
2024/02/24 04:10:17;;;;;;;;;1.00;1.00;;;;;11.89;100.00;99070.19;2093673;28;46286;-51
2024/02/24 04:11:18;;;;;;;;;1.00;1.00;;;;;11.97;100.00;99068.84;2094077;28;46250;-48
2024/02/24 04:12:18;;;;;;;;;0.00;0.00;;;;;11.99;100.00;99071.44;2091120;28;46524;-48
2024/02/24 04:13:20;;;;;;;;;1.00;1.00;;;;;11.82;100.00;99072.34;2093898;28;45974;-46
2024/02/24 04:14:20;;;;;;;;;2.00;1.00;;;;;11.87;100.00;99072.06;2093340;28;46472;-49
2024/02/24 04:15:21;;;;;;;;;1.00;1.00;;;;;11.83;100.00;99065.22;2093974;28;46797;-50
2024/02/24 04:16:22;;;;;;;;;1.00;1.00;;;;;11.89;100.00;99065.72;2094054;28;45921;-50
2024/02/24 04:17:22;;;;;;;;;1.00;1.00;;;;;11.75;100.00;99063.78;2093338;28;46241;-47
2024/02/24 04:18:22;;;;;;;;;1.00;1.00;;;;;11.79;100.00;99064.50;2092654;28;46176;-50
2024/02/24 04:19:23;;;;;;;;;1.00;1.00;;;;;11.84;100.00;99072.25;2093282;28;45153;-50
2024/02/24 04:20:23;;;;;;;;;1.67;1.00;;;;;11.86;100.00;99073.88;2093036;28;46214;-51
2024/02/24 04:21:23;;;;;;;;;1.33;1.33;;;;;11.78;100.00;99076.03;2093564;28;46705;-48
2024/02/24 04:22:24;;;;;;;;;1.00;1.00;;;;;11.53;100.00;99083.56;2094123;28;45474;-48
2024/02/24 04:23:24;;;;;;;;;1.00;1.00;;;;;11.73;100.00;99086.91;2093501;28;46618;-49
2024/02/24 04:24:24;;;;;;;;;0.00;0.00;;;;;11.71;100.00;99093.25;2092939;28;46321;-51
2024/02/24 04:25:25;;;;;;;;;2.00;2.00;;;;;11.85;100.00;99093.44;2090153;28;46652;-49
2024/02/24 04:26:25;;;;;;;;;1.00;1.00;;;;;11.33;100.00;99088.13;2100118;27;46653;-49
2024/02/24 04:27:25;;;;;;;;;1.67;1.67;;;;;11.58;100.00;99093.03;2105485;27;45862;-51
2024/02/24 04:28:26;;;;;;;;;0.00;0.00;;;;;11.72;100.00;99089.66;2106653;27;47074;-50
2024/02/24 04:29:26;;;;;;;;;1.00;1.00;;;;;11.45;100.00;99090.16;2106780;27;46645;-50
2024/02/24 04:30:26;;;;;;;;;2.00;1.00;;;;;11.75;100.00;99090.34;2107743;27;46785;-48
2024/02/24 04:31:27;;;;;;;;;1.00;1.00;;;;;11.83;100.00;99097.13;2106619;27;46851;-49
2024/02/24 04:32:29;;;;;;;;;0.75;0.75;;;;;11.86;100.00;99092.47;2106990;27;47113;-49
2024/02/24 04:33:29;;;;;;;;;1.00;1.00;;;;;11.85;100.00;99098.75;2107442;27;46476;-50
2024/02/24 04:34:29;;;;;;;;;0.33;0.33;;;;;11.57;100.00;99095.78;2106846;27;46786;-50
2024/02/24 04:35:29;;;;;;;;;2.67;1.00;;;;;11.57;100.00;99098.44;2106405;27;46642;-49
2024/02/24 04:36:30;;;;;;;;;1.00;0.00;;;;;11.51;100.00;99094.28;2107225;27;46150;-50
2024/02/24 04:37:30;;;;;;;;;0.67;0.67;;;;;11.50;100.00;99098.72;2108343;27;46278;-47
2024/02/24 04:38:30;;;;;;;;;1.33;1.00;;;;;11.70;100.00;99092.41;2107321;27;46154;-49
2024/02/24 04:39:31;;;;;;;;;0.33;0.33;;;;;11.75;100.00;99100.13;2106868;27;46373;-48
2024/02/24 04:40:35;;;;;;;;;1.00;1.00;;;;;11.46;100.00;99105.16;2107204;27;46811;-50
2024/02/24 04:41:36;;;;;;;;;2.00;1.00;;;;;11.44;100.00;99095.56;2106950;27;46402;-50